createdAt,value
2017-11-21T00:00:32.683Z,5.30
2017-11-21T00:03:00.700Z,5.30
2017-11-21T00:05:29.500Z,5.30
2017-11-21T00:08:00.839Z,5.40
2017-11-21T00:10:29.646Z,5.50
2017-11-21T00:12:57.673Z,5.40
2017-11-21T00:15:25.699Z,5.60
2017-11-21T00:17:53.716Z,5.60
2017-11-21T00:20:22.503Z,5.80
2017-11-21T00:22:50.535Z,5.80
2017-11-21T00:25:18.554Z,5.90
2017-11-21T00:27:47.361Z,6.00
2017-11-21T00:30:15.377Z,5.90
2017-11-21T00:32:43.420Z,6.00
2017-11-21T00:35:11.436Z,6.00
2017-11-21T00:37:40.224Z,6.00
2017-11-21T00:40:09.029Z,6.00
2017-11-21T00:42:37.863Z,6.00
2017-11-21T00:45:05.893Z,6.00
2017-11-21T00:47:33.910Z,6.00
2017-11-21T00:50:02.716Z,6.10
2017-11-21T00:52:30.736Z,6.10
2017-11-21T00:54:58.774Z,6.10
2017-11-21T00:57:27.568Z,6.20
2017-11-21T00:59:56.394Z,6.20
2017-11-21T01:02:25.164Z,6.20
2017-11-21T01:04:53.969Z,6.20
2017-11-21T01:07:22.745Z,6.30
2017-11-21T01:09:50.787Z,6.20
2017-11-21T01:12:18.812Z,6.30
2017-11-21T01:14:46.839Z,6.30
2017-11-21T01:17:14.872Z,6.30
2017-11-21T01:19:42.944Z,6.30
2017-11-21T01:22:10.976Z,6.40
2017-11-21T01:24:39.753Z,6.40
2017-11-21T01:27:07.788Z,6.30
2017-11-21T01:29:35.803Z,6.30
2017-11-21T01:32:03.868Z,6.40
2017-11-21T01:34:31.877Z,6.40
2017-11-21T01:36:59.885Z,6.30
2017-11-21T01:39:28.637Z,6.40
2017-11-21T01:41:56.647Z,6.30
2017-11-21T01:44:24.626Z,6.40
2017-11-21T01:46:52.621Z,6.30
2017-11-21T01:49:21.378Z,6.40
2017-11-21T01:51:49.394Z,6.40
2017-11-21T01:54:17.380Z,6.40
2017-11-21T01:56:45.373Z,6.50
2017-11-21T01:59:14.173Z,6.40
2017-11-21T02:01:42.133Z,6.40
2017-11-21T02:04:10.112Z,6.50
2017-11-21T02:06:38.130Z,6.50
2017-11-21T02:09:06.874Z,6.50
2017-11-21T02:11:34.865Z,6.50
2017-11-21T02:14:02.877Z,6.50
2017-11-21T02:16:30.861Z,6.50
2017-11-21T02:18:58.841Z,6.50
2017-11-21T02:21:26.845Z,6.50
2017-11-21T02:23:55.602Z,6.60
2017-11-21T02:26:23.579Z,6.50
2017-11-21T02:28:51.596Z,6.60
2017-11-21T02:31:20.346Z,6.70
2017-11-21T02:33:48.333Z,6.60
2017-11-21T02:36:16.350Z,6.70
2017-11-21T02:38:44.425Z,6.70
2017-11-21T02:41:12.404Z,6.70
2017-11-21T02:43:40.436Z,6.70
2017-11-21T02:46:08.417Z,6.70
2017-11-21T02:48:36.400Z,6.80
2017-11-21T02:51:04.421Z,6.70
2017-11-21T02:53:32.417Z,6.70
2017-11-21T02:56:00.398Z,6.70
2017-11-21T02:58:28.434Z,6.70
2017-11-21T03:00:56.421Z,6.80
2017-11-21T03:03:24.405Z,6.70
2017-11-21T03:05:52.439Z,6.80
2017-11-21T03:08:20.480Z,6.80
2017-11-21T03:10:49.202Z,6.90
2017-11-21T03:13:17.225Z,6.80
2017-11-21T03:15:45.968Z,6.90
2017-11-21T03:18:13.973Z,6.80
2017-11-21T03:20:53.869Z,6.90
2017-11-21T03:23:34.470Z,6.90
2017-11-21T03:26:14.381Z,6.80
2017-11-21T03:28:42.361Z,6.90
2017-11-21T03:31:10.350Z,6.90
2017-11-21T03:33:38.389Z,6.90
2017-11-21T03:36:06.378Z,6.90
2017-11-21T03:38:34.358Z,6.90
2017-11-21T03:41:02.373Z,6.90
2017-11-21T03:43:30.356Z,7.00
2017-11-21T03:45:58.334Z,7.00
2017-11-21T03:48:26.354Z,6.90
2017-11-21T03:50:55.108Z,7.00
2017-11-21T03:53:23.085Z,6.90
2017-11-21T03:55:51.115Z,7.00
2017-11-21T03:58:19.861Z,7.10
2017-11-21T04:00:55.474Z,7.00
2017-11-21T04:03:23.442Z,7.10
2017-11-21T04:05:51.426Z,7.10
2017-11-21T04:08:19.450Z,7.00
2017-11-21T04:10:47.437Z,7.00
2017-11-21T04:13:15.431Z,7.10
2017-11-21T04:15:43.998Z,7.10
2017-11-21T04:18:12.770Z,7.10
2017-11-21T04:20:40.753Z,7.00
2017-11-21T04:23:08.768Z,7.10
2017-11-21T04:25:36.751Z,7.10
2017-11-21T04:28:04.729Z,7.10
2017-11-21T04:30:32.750Z,7.10
2017-11-21T04:33:01.489Z,7.10
2017-11-21T04:35:29.473Z,7.10
2017-11-21T04:37:58.261Z,7.10
2017-11-21T04:40:26.241Z,7.10
2017-11-21T04:42:54.225Z,7.10
2017-11-21T04:45:22.252Z,7.10
2017-11-21T04:47:50.237Z,7.10
2017-11-21T04:50:18.216Z,7.10
2017-11-21T04:52:46.258Z,7.10
2017-11-21T04:55:15.749Z,7.10
2017-11-21T04:57:43.729Z,7.10
2017-11-21T05:00:11.749Z,7.10
2017-11-21T05:02:39.739Z,7.00
2017-11-21T05:05:07.714Z,7.00
2017-11-21T05:07:35.898Z,7.00
2017-11-21T05:10:03.877Z,6.90
2017-11-21T05:12:32.841Z,6.90
2017-11-21T05:15:00.858Z,6.90
2017-11-21T05:17:28.841Z,7.00
2017-11-21T05:19:56.834Z,7.00
2017-11-21T05:22:25.034Z,7.00
2017-11-21T05:24:53.785Z,7.00
2017-11-21T05:27:21.769Z,7.00
2017-11-21T05:29:49.773Z,7.10
2017-11-21T05:32:17.765Z,7.10
2017-11-21T05:34:45.748Z,7.10
2017-11-21T05:37:13.785Z,7.10
2017-11-21T05:39:41.764Z,7.10
2017-11-21T05:42:09.746Z,7.10
2017-11-21T05:44:37.749Z,7.10
2017-11-21T05:47:05.735Z,7.10
2017-11-21T05:49:33.713Z,7.00
2017-11-21T05:52:01.745Z,7.10
2017-11-21T05:54:30.489Z,7.10
2017-11-21T05:56:58.478Z,7.10
2017-11-21T05:59:26.510Z,7.10
2017-11-21T06:01:55.266Z,7.10
2017-11-21T06:04:23.236Z,7.10
2017-11-21T06:06:51.338Z,7.10
2017-11-21T06:09:19.330Z,7.10
2017-11-21T06:11:47.309Z,7.10
2017-11-21T06:14:15.332Z,7.20
2017-11-21T06:16:44.073Z,7.10
2017-11-21T06:19:12.053Z,7.10
2017-11-21T06:21:40.074Z,7.20
2017-11-21T06:24:08.089Z,7.20
2017-11-21T06:26:36.814Z,7.30
2017-11-21T06:29:04.837Z,7.20
2017-11-21T06:31:32.821Z,7.30
2017-11-21T06:34:00.806Z,7.30
2017-11-21T06:36:28.829Z,7.30
2017-11-21T06:38:56.808Z,7.20
2017-11-21T06:41:24.785Z,7.30
2017-11-21T06:43:52.797Z,7.20
2017-11-21T06:46:22.413Z,7.30
2017-11-21T06:48:50.393Z,7.20
2017-11-21T06:51:18.404Z,7.30
2017-11-21T06:53:46.394Z,7.30
2017-11-21T06:56:14.382Z,7.30
2017-11-21T06:58:42.422Z,7.30
2017-11-21T07:01:10.400Z,7.30
2017-11-21T07:03:38.401Z,7.30
2017-11-21T07:06:06.397Z,7.30
2017-11-21T07:08:34.377Z,7.30
2017-11-21T07:11:02.357Z,7.40
2017-11-21T07:13:30.361Z,7.40
2017-11-21T07:15:58.341Z,7.40
2017-11-21T07:18:26.328Z,7.40
2017-11-21T07:20:55.121Z,7.40
2017-11-21T07:23:23.870Z,7.50
2017-11-21T07:25:51.850Z,7.40
2017-11-21T07:28:19.866Z,7.40
2017-11-21T07:30:47.854Z,7.40
2017-11-21T07:33:16.640Z,7.40
2017-11-21T07:35:44.758Z,7.30
2017-11-21T07:38:12.745Z,7.40
2017-11-21T07:40:41.502Z,7.40
2017-11-21T07:43:09.509Z,7.30
2017-11-21T07:45:37.489Z,7.40
2017-11-21T07:48:05.473Z,7.30
2017-11-21T07:50:33.489Z,7.40
2017-11-21T07:53:02.237Z,7.30
2017-11-21T07:55:30.233Z,7.30
2017-11-21T07:57:58.229Z,7.40
2017-11-21T08:00:26.214Z,7.40
2017-11-21T08:02:54.193Z,7.40
2017-11-21T08:05:29.617Z,7.40
2017-11-21T08:07:57.601Z,7.40
2017-11-21T08:10:25.588Z,7.40
2017-11-21T08:12:53.702Z,7.50
2017-11-21T08:15:21.700Z,7.50
2017-11-21T08:17:50.465Z,7.50
2017-11-21T08:20:18.493Z,7.40
2017-11-21T08:22:47.246Z,7.50
2017-11-21T08:25:15.237Z,7.50
2017-11-21T08:27:43.441Z,7.50
2017-11-21T08:30:11.421Z,7.60
2017-11-21T08:32:40.913Z,7.50
2017-11-21T08:35:08.947Z,7.50
2017-11-21T08:37:37.690Z,7.60
2017-11-21T08:40:05.669Z,7.60
2017-11-21T08:42:33.673Z,7.60
2017-11-21T08:45:01.662Z,7.70
2017-11-21T08:47:30.422Z,7.70
2017-11-21T08:49:58.428Z,7.70
2017-11-21T08:52:26.406Z,7.70
2017-11-21T08:54:54.389Z,7.70
2017-11-21T08:57:22.394Z,7.70
2017-11-21T08:59:50.473Z,7.70
2017-11-21T09:02:18.445Z,7.70
2017-11-21T09:04:46.562Z,7.80
2017-11-21T09:07:15.310Z,7.80
2017-11-21T09:09:43.297Z,7.80
2017-11-21T09:12:11.325Z,7.80
2017-11-21T09:14:40.080Z,7.90
2017-11-21T09:17:08.061Z,7.80
2017-11-21T09:19:36.069Z,7.90
2017-11-21T09:22:04.053Z,7.80
2017-11-21T09:24:32.025Z,7.90
2017-11-21T09:27:00.046Z,7.90
2017-11-21T09:29:28.808Z,7.80
2017-11-21T09:31:56.786Z,7.80
2017-11-21T09:34:24.819Z,7.80
2017-11-21T09:36:53.566Z,7.80
2017-11-21T09:39:21.550Z,7.80
2017-11-21T09:41:49.586Z,7.80
2017-11-21T09:44:18.334Z,7.80
2017-11-21T09:46:46.325Z,7.70
2017-11-21T09:49:14.341Z,7.80
2017-11-21T09:51:43.090Z,7.90
2017-11-21T09:54:11.065Z,7.80
2017-11-21T09:56:39.189Z,7.80
2017-11-21T09:59:07.175Z,7.80
2017-11-21T10:01:35.154Z,7.80
2017-11-21T10:04:04.709Z,7.70
2017-11-21T10:06:32.697Z,7.70
2017-11-21T10:09:00.676Z,7.80
2017-11-21T10:11:28.710Z,7.80
2017-11-21T10:13:56.681Z,7.80
2017-11-21T10:16:24.794Z,7.80
2017-11-21T10:18:52.800Z,7.80
2017-11-21T10:21:21.550Z,7.80
2017-11-21T10:23:49.545Z,7.80
2017-11-21T10:26:17.594Z,7.90
2017-11-21T10:28:45.585Z,7.80
2017-11-21T10:31:13.572Z,7.80
2017-11-21T10:33:41.581Z,7.90
2017-11-21T10:36:09.773Z,7.90
2017-11-21T10:38:37.914Z,7.90
2017-11-21T10:41:05.946Z,7.90
2017-11-21T10:43:33.930Z,7.90
2017-11-21T10:46:01.909Z,7.90
2017-11-21T10:48:30.694Z,7.90
2017-11-21T10:50:58.673Z,7.80
2017-11-21T10:53:26.740Z,7.80
2017-11-21T10:55:54.736Z,7.80
2017-11-21T10:58:22.709Z,7.80
2017-11-21T11:00:50.697Z,7.90
2017-11-21T11:03:18.729Z,7.90
2017-11-21T11:05:46.724Z,7.90
2017-11-21T11:08:14.708Z,7.90
2017-11-21T11:10:42.708Z,7.90
2017-11-21T11:13:10.693Z,7.90
2017-11-21T11:15:38.680Z,7.90
2017-11-21T11:18:06.696Z,7.90
2017-11-21T11:20:34.686Z,8.00
2017-11-21T11:23:02.670Z,7.90
2017-11-21T11:25:30.693Z,7.90
2017-11-21T11:27:58.673Z,7.90
2017-11-21T11:30:26.658Z,7.90
2017-11-21T11:32:54.669Z,7.90
2017-11-21T11:35:22.684Z,8.00
2017-11-21T11:37:50.657Z,8.00
2017-11-21T11:40:18.677Z,8.00
2017-11-21T11:42:46.661Z,8.00
2017-11-21T11:45:14.646Z,8.00
2017-11-21T11:47:42.796Z,8.00
2017-11-21T11:50:10.783Z,8.10
2017-11-21T11:52:38.784Z,8.00
2017-11-21T11:55:06.798Z,8.00
2017-11-21T11:57:34.781Z,8.00
2017-11-21T12:00:02.776Z,8.00
2017-11-21T12:02:30.789Z,8.00
2017-11-21T12:04:58.769Z,8.10
2017-11-21T12:07:26.753Z,8.10
2017-11-21T12:09:56.283Z,8.10
2017-11-21T12:12:25.036Z,8.20
2017-11-21T12:14:53.020Z,8.10
2017-11-21T12:17:21.152Z,8.20
2017-11-21T12:19:49.911Z,8.20
2017-11-21T12:22:17.901Z,8.20
2017-11-21T12:24:45.934Z,8.30
2017-11-21T12:27:13.917Z,8.30
2017-11-21T12:29:41.926Z,8.30
2017-11-21T12:32:10.333Z,8.30
2017-11-21T12:34:38.314Z,8.40
2017-11-21T12:37:06.297Z,8.40
2017-11-21T12:39:34.310Z,8.40
2017-11-21T12:42:02.299Z,8.40
2017-11-21T12:44:30.289Z,8.30
2017-11-21T12:46:59.059Z,8.40
2017-11-21T12:49:27.057Z,8.30
2017-11-21T12:51:55.041Z,8.40
2017-11-21T12:54:23.056Z,8.40
2017-11-21T12:56:51.042Z,8.40
2017-11-21T12:59:19.031Z,8.40
2017-11-21T13:01:47.061Z,8.50
2017-11-21T13:04:15.050Z,8.50
2017-11-21T13:06:43.034Z,8.50
2017-11-21T13:09:11.062Z,8.50
2017-11-21T13:11:39.074Z,8.50
2017-11-21T13:14:07.049Z,8.40
2017-11-21T13:16:35.065Z,8.50
2017-11-21T13:19:03.041Z,8.50
2017-11-21T13:21:31.025Z,8.50
2017-11-21T13:23:59.221Z,8.40
2017-11-21T13:26:27.214Z,8.40
2017-11-21T13:28:55.957Z,8.40
2017-11-21T13:31:23.996Z,8.40
2017-11-21T13:34:00.363Z,8.40
2017-11-21T13:36:28.383Z,8.30
2017-11-21T13:38:56.372Z,8.30
2017-11-21T13:41:24.367Z,8.30
2017-11-21T13:43:52.402Z,8.30
2017-11-21T13:46:21.166Z,8.30
2017-11-21T13:48:49.161Z,8.30
2017-11-21T13:51:17.193Z,8.30
2017-11-21T13:53:45.205Z,8.30
2017-11-21T13:56:13.213Z,8.20
2017-11-21T13:58:41.229Z,8.20
2017-11-21T14:01:09.974Z,8.20
2017-11-21T14:03:37.962Z,8.10
2017-11-21T14:06:05.990Z,8.10
2017-11-21T14:08:34.743Z,8.20
2017-11-21T14:11:02.724Z,8.10
2017-11-21T14:13:30.756Z,8.20
2017-11-21T14:15:59.501Z,8.20
2017-11-21T14:18:27.492Z,8.10
2017-11-21T14:20:55.510Z,8.20
2017-11-21T14:23:23.490Z,8.20
2017-11-21T14:25:51.470Z,8.20
2017-11-21T14:28:19.498Z,8.20
2017-11-21T14:30:47.592Z,8.20
2017-11-21T14:33:15.562Z,8.30
2017-11-21T14:35:43.992Z,8.30
2017-11-21T14:38:11.969Z,8.20
2017-11-21T14:40:39.954Z,8.20
2017-11-21T14:43:07.993Z,8.20
2017-11-21T14:45:35.986Z,8.20
2017-11-21T14:48:03.966Z,8.20
2017-11-21T14:50:33.442Z,8.20
2017-11-21T14:53:02.197Z,8.20
2017-11-21T14:55:30.189Z,8.10
2017-11-21T14:57:58.233Z,8.20
2017-11-21T15:00:26.977Z,8.20
2017-11-21T15:02:54.973Z,8.10
2017-11-21T15:05:22.971Z,8.10
2017-11-21T15:07:50.957Z,8.10
2017-11-21T15:10:18.975Z,8.10
2017-11-21T15:12:47.139Z,8.10
2017-11-21T15:15:15.907Z,8.10
2017-11-21T15:17:43.882Z,8.10
2017-11-21T15:20:11.897Z,8.10
2017-11-21T15:22:40.642Z,8.00
2017-11-21T15:25:08.625Z,8.00
2017-11-21T15:27:36.641Z,8.10
2017-11-21T15:30:04.626Z,8.10
2017-11-21T15:32:32.613Z,8.10
2017-11-21T15:35:00.640Z,8.00
2017-11-21T15:37:28.617Z,8.00
2017-11-21T15:39:56.597Z,8.10
2017-11-21T15:42:24.600Z,8.10
2017-11-21T15:44:53.013Z,8.20
2017-11-21T15:47:21.018Z,8.10
2017-11-21T15:49:49.039Z,8.10
2017-11-21T15:52:17.035Z,8.10
2017-11-21T15:54:45.019Z,8.10
2017-11-21T15:57:14.061Z,8.20
2017-11-21T15:59:42.042Z,8.20
2017-11-21T16:02:10.022Z,8.20
2017-11-21T16:04:38.040Z,8.20
2017-11-21T16:07:06.786Z,8.20
2017-11-21T16:09:34.765Z,8.10
2017-11-21T16:12:02.839Z,8.20
2017-11-21T16:14:30.809Z,8.20
2017-11-21T16:16:58.790Z,8.20
2017-11-21T16:19:26.941Z,8.10
2017-11-21T16:21:54.921Z,8.00
2017-11-21T16:24:22.906Z,8.10
2017-11-21T16:26:50.934Z,8.10
2017-11-21T16:29:20.046Z,8.10
2017-11-21T16:31:48.025Z,8.10
2017-11-21T16:34:16.081Z,8.10
2017-11-21T16:36:44.831Z,8.10
2017-11-21T16:39:12.810Z,8.00
2017-11-21T16:41:40.832Z,8.00
2017-11-21T16:44:08.814Z,8.10
2017-11-21T16:46:36.792Z,8.10
2017-11-21T16:49:04.822Z,8.00
2017-11-21T16:51:34.356Z,8.10
2017-11-21T16:54:02.339Z,8.00
2017-11-21T16:56:30.357Z,8.00
2017-11-21T16:58:58.341Z,8.00
2017-11-21T17:01:26.321Z,8.10
2017-11-21T17:03:54.343Z,8.10
2017-11-21T17:06:22.313Z,8.20
2017-11-21T17:08:54.366Z,8.20
2017-11-21T17:11:22.365Z,8.20
2017-11-21T17:13:51.118Z,8.30
2017-11-21T17:16:19.156Z,8.20
2017-11-21T17:18:47.897Z,8.40
2017-11-21T17:21:15.890Z,8.30
2017-11-21T17:23:44.096Z,8.40
2017-11-21T17:26:12.087Z,8.40
2017-11-21T17:28:40.069Z,8.40
2017-11-21T17:31:08.090Z,8.40
2017-11-21T17:33:36.519Z,8.40
2017-11-21T17:36:04.505Z,8.40
2017-11-21T17:38:33.533Z,8.40
2017-11-21T17:41:01.519Z,8.40
2017-11-21T17:43:29.498Z,8.40
2017-11-21T17:45:57.510Z,8.50
2017-11-21T17:48:25.511Z,8.50
2017-11-21T17:50:56.146Z,8.50
2017-11-21T17:53:24.901Z,8.40
2017-11-21T17:55:52.893Z,8.40
2017-11-21T17:58:20.881Z,8.40
2017-11-21T18:00:49.664Z,8.30
2017-11-21T18:03:17.640Z,8.30
2017-11-21T18:05:49.348Z,8.30
2017-11-21T18:08:17.328Z,8.30
2017-11-21T18:10:45.316Z,8.30
2017-11-21T18:13:13.675Z,8.30
2017-11-21T18:15:42.531Z,8.20
2017-11-21T18:18:10.726Z,8.20
2017-11-21T18:20:38.740Z,8.20
2017-11-21T18:23:06.731Z,8.10
2017-11-21T18:25:34.713Z,8.10
2017-11-21T18:28:02.719Z,8.00
2017-11-21T18:30:31.483Z,7.90
2017-11-21T18:33:05.389Z,7.80
2017-11-21T18:35:33.374Z,7.80
2017-11-21T18:38:01.354Z,7.80
2017-11-21T18:40:29.371Z,7.80
2017-11-21T18:42:57.380Z,7.70
2017-11-21T18:45:25.384Z,7.70
2017-11-21T18:47:53.419Z,7.70
2017-11-21T18:50:27.159Z,7.60
2017-11-21T18:52:56.733Z,7.60
2017-11-21T18:55:24.948Z,7.50
2017-11-21T18:57:53.692Z,7.60
2017-11-21T19:00:21.834Z,7.50
2017-11-21T19:02:49.821Z,7.60
2017-11-21T19:05:18.577Z,7.60
2017-11-21T19:07:46.605Z,7.50
2017-11-21T19:10:15.554Z,7.70
2017-11-21T19:12:43.534Z,7.70
2017-11-21T19:15:11.661Z,7.70
2017-11-21T19:17:40.449Z,7.70
2017-11-21T19:20:08.998Z,7.60
2017-11-21T19:22:36.994Z,7.70
2017-11-21T19:25:05.078Z,7.70
2017-11-21T19:27:34.658Z,7.70
2017-11-21T19:30:03.462Z,7.80
2017-11-21T19:32:32.205Z,7.70
2017-11-21T19:35:00.192Z,7.70
2017-11-21T19:37:28.266Z,7.70
2017-11-21T19:39:56.224Z,7.80
2017-11-21T19:42:24.214Z,7.80
2017-11-21T19:44:52.278Z,7.80
2017-11-21T19:47:21.068Z,7.70
2017-11-21T19:49:49.057Z,7.70
2017-11-21T19:52:17.113Z,7.80
2017-11-21T19:54:49.409Z,7.90
2017-11-21T19:57:17.418Z,7.80
2017-11-21T19:59:46.210Z,7.90
2017-11-21T20:02:14.962Z,7.90
2017-11-21T20:04:42.970Z,7.90
2017-11-21T20:07:11.742Z,7.90
2017-11-21T20:09:39.749Z,7.90
2017-11-21T20:12:07.778Z,7.90
2017-11-21T20:14:35.761Z,7.90
2017-11-21T20:17:04.629Z,7.90
2017-11-21T20:19:32.732Z,7.90
2017-11-21T20:22:02.327Z,7.90
2017-11-21T20:24:30.317Z,7.90
2017-11-21T20:26:58.346Z,7.90
2017-11-21T20:29:26.486Z,7.90
2017-11-21T20:31:55.498Z,8.00
2017-11-21T20:34:24.317Z,8.00
2017-11-21T20:36:53.073Z,8.00
2017-11-21T20:39:21.061Z,8.00
2017-11-21T20:41:49.096Z,8.10
2017-11-21T20:44:17.085Z,8.00
2017-11-21T20:46:45.085Z,8.10
2017-11-21T20:49:13.111Z,8.10
2017-11-21T20:51:41.123Z,8.10
2017-11-21T20:54:13.567Z,8.10
2017-11-21T20:56:43.038Z,8.10
2017-11-21T20:59:13.313Z,8.10
2017-11-21T21:01:41.325Z,8.10
2017-11-21T21:04:10.085Z,8.10
2017-11-21T21:06:38.117Z,8.10
2017-11-21T21:09:07.980Z,8.10
2017-11-21T21:11:37.152Z,8.20
2017-11-21T21:14:10.545Z,8.10
2017-11-21T21:16:38.630Z,8.10
2017-11-21T21:19:07.074Z,8.10
2017-11-21T21:21:35.226Z,8.10
2017-11-21T21:24:03.973Z,8.20
2017-11-21T21:26:31.962Z,8.10
2017-11-21T21:28:59.986Z,8.20
2017-11-21T21:31:33.669Z,8.20
2017-11-21T21:34:04.981Z,8.20
2017-11-21T21:36:33.808Z,8.20
2017-11-21T21:39:01.945Z,8.10
2017-11-21T21:41:29.990Z,8.20
2017-11-21T21:43:58.103Z,8.10
2017-11-21T21:46:26.081Z,8.10
2017-11-21T21:48:54.114Z,8.10
2017-11-21T21:51:22.106Z,8.10
2017-11-21T21:53:50.086Z,8.10
2017-11-21T21:56:18.130Z,8.10
2017-11-21T21:58:46.105Z,8.10
2017-11-21T22:01:14.093Z,8.20
2017-11-21T22:03:42.105Z,8.20
2017-11-21T22:06:10.093Z,8.10
2017-11-21T22:08:38.077Z,8.10
2017-11-21T22:11:06.097Z,8.10
2017-11-21T22:13:34.078Z,8.10
2017-11-21T22:16:02.087Z,8.20
2017-11-21T22:18:30.089Z,8.20
2017-11-21T22:20:58.086Z,8.10
2017-11-21T22:23:26.069Z,8.10
2017-11-21T22:25:54.106Z,8.10
2017-11-21T22:28:22.098Z,8.10
2017-11-21T22:30:50.877Z,8.10
2017-11-21T22:33:18.889Z,8.10
2017-11-21T22:35:47.639Z,8.10
2017-11-21T22:38:15.638Z,8.10
2017-11-21T22:40:43.746Z,8.10
2017-11-21T22:43:11.724Z,8.10
2017-11-21T22:45:39.713Z,8.10
2017-11-21T22:48:07.749Z,8.10
2017-11-21T22:50:35.743Z,8.10
2017-11-21T22:53:03.726Z,8.10
2017-11-21T22:55:31.762Z,8.10
2017-11-21T22:58:00.513Z,8.10
2017-11-21T23:00:28.499Z,8.00
2017-11-21T23:02:56.712Z,8.00
2017-11-21T23:05:24.697Z,8.00
2017-11-21T23:07:52.681Z,8.00
2017-11-21T23:10:20.710Z,8.10
2017-11-21T23:12:48.701Z,8.00
2017-11-21T23:15:16.682Z,8.00
2017-11-21T23:17:44.722Z,8.00
2017-11-21T23:20:13.474Z,8.00
2017-11-21T23:22:41.454Z,8.00
2017-11-21T23:25:09.480Z,8.00
2017-11-21T23:27:37.470Z,8.00
2017-11-21T23:30:06.225Z,8.10
2017-11-21T23:32:34.245Z,8.00
2017-11-21T23:35:02.301Z,8.20
2017-11-21T23:37:30.298Z,8.10
2017-11-21T23:39:58.301Z,8.10
2017-11-21T23:42:27.050Z,8.10
2017-11-21T23:44:55.046Z,8.00
2017-11-21T23:47:23.055Z,8.10
2017-11-21T23:49:51.042Z,8.10
2017-11-21T23:52:19.025Z,8.10
2017-11-21T23:54:47.818Z,8.20
2017-11-21T23:57:15.817Z,8.10
2017-11-21T23:59:44.566Z,8.00
